Time;durP1;ratioP1;P1;durP2;ratioP2;P2;SDS_P1;SDS_P2;PMS_P1;PMS_P2;Temp;Humidity;BMP_temperature;BMP_pressure;BME280_temperature;BME280_humidity;BME280_pressure;Samples;Min_cycle;Max_cycle;Signal;HPM_P1;HPM_P2
2020/12/03 00:00:32;;;;;;;84.80;43.58;;;0.20;95.20;;;;;;5063436;28;20584;-65
2020/12/03 00:03:00;;;;;;;86.00;43.63;;;0.20;95.20;;;;;;5050767;28;20581;-66
2020/12/03 00:05:26;;;;;;;83.65;43.17;;;0.20;95.20;;;;;;5062820;28;20047;-65
2020/12/03 00:07:54;;;;;;;86.95;43.22;;;0.20;95.10;;;;;;5064662;28;20025;-66
2020/12/03 00:10:20;;;;;;;79.10;41.05;;;0.20;95.20;;;;;;5062098;28;20113;-66
2020/12/03 00:13:01;;;;;;;83.15;42.58;;;0.30;95.20;;;;;;5057259;28;20089;-66
2020/12/03 00:15:26;;;;;;;;;;;0.30;95.20;;;;;;5065259;28;20032;-66
2020/12/03 00:17:52;;;;;;;76.57;40.35;;;0.30;95.10;;;;;;5050916;28;19970;-66
2020/12/03 00:20:18;;;;;;;80.40;42.17;;;0.30;95.10;;;;;;5062046;28;20082;-66
2020/12/03 00:22:44;;;;;;;83.13;43.42;;;0.30;95.10;;;;;;5063844;28;20476;-67
2020/12/03 00:25:10;;;;;;;82.20;42.95;;;0.30;95.20;;;;;;5065453;28;20034;-66
2020/12/03 00:27:35;;;;;;;79.15;41.38;;;0.30;95.20;;;;;;5063846;28;20225;-66
2020/12/03 00:30:05;;;;;;;84.45;41.13;;;0.30;95.20;;;;;;5063950;28;20054;-66
2020/12/03 00:32:31;;;;;;;75.60;41.03;;;0.30;95.00;;;;;;5056493;28;20028;-66
2020/12/03 00:34:56;;;;;;;83.82;44.30;;;0.30;95.00;;;;;;5047931;28;20104;-66
2020/12/03 00:37:22;;;;;;;78.40;41.80;;;0.30;95.00;;;;;;5065477;28;20343;-65
2020/12/03 00:39:47;;;;;;;81.00;42.88;;;0.40;95.00;;;;;;5057564;28;20401;-66
2020/12/03 00:42:13;;;;;;;73.20;40.63;;;0.40;94.80;;;;;;5051125;28;20059;-66
2020/12/03 00:44:38;;;;;;;70.47;40.35;;;0.40;94.80;;;;;;5063284;28;20032;-66
2020/12/03 00:47:04;;;;;;;82.05;41.50;;;0.40;94.80;;;;;;5064951;28;20032;-67
2020/12/03 00:49:30;;;;;;;78.80;42.33;;;0.40;94.60;;;;;;5061441;28;20165;-66
2020/12/03 00:51:55;;;;;;;76.63;41.58;;;0.40;94.70;;;;;;5066358;28;20033;-66
2020/12/03 00:54:21;;;;;;;72.97;39.13;;;0.40;94.70;;;;;;5064301;28;20028;-66
2020/12/03 00:56:47;;;;;;;77.18;40.85;;;0.40;94.70;;;;;;5064791;28;20606;-66
2020/12/03 00:59:13;;;;;;;78.85;40.25;;;0.40;94.70;;;;;;5053954;28;20036;-66
2020/12/03 01:01:38;;;;;;;76.53;40.65;;;0.40;94.70;;;;;;5055376;28;20368;-66
2020/12/03 01:04:04;;;;;;;73.90;38.53;;;0.40;94.60;;;;;;5065025;28;20450;-66
2020/12/03 01:06:29;;;;;;;65.15;39.13;;;0.50;94.50;;;;;;5064822;28;20032;-66
2020/12/03 01:08:55;;;;;;;73.57;38.08;;;0.40;94.60;;;;;;5057591;28;20033;-66
2020/12/03 01:11:22;;;;;;;77.18;38.33;;;0.50;94.50;;;;;;5052104;28;20504;-66
2020/12/03 01:13:48;;;;;;;67.03;37.70;;;0.50;94.30;;;;;;5065011;28;20037;-66
2020/12/03 01:16:18;;;;;;;77.10;38.00;;;0.50;94.20;;;;;;5061575;28;20044;-66
2020/12/03 01:18:47;;;;;;;75.75;37.78;;;0.50;93.80;;;;;;5054793;28;20388;-66
2020/12/03 01:21:18;;;;;;;65.50;37.83;;;0.50;94.20;;;;;;5057880;28;20028;-66
2020/12/03 01:23:43;;;;;;;69.32;37.95;;;0.50;94.10;;;;;;5061496;28;20236;-65
2020/12/03 01:26:09;;;;;;;64.63;35.60;;;0.50;94.00;;;;;;5066570;28;20075;-66
2020/12/03 01:28:34;;;;;;;67.65;36.65;;;0.60;93.90;;;;;;5063873;28;20056;-66
2020/12/03 01:31:03;;;;;;;68.60;36.20;;;0.60;93.80;;;;;;5053038;28;20409;-66
2020/12/03 01:33:29;;;;;;;64.88;35.95;;;0.50;93.70;;;;;;5057750;28;20031;-66
2020/12/03 01:35:55;;;;;;;60.50;34.83;;;0.50;93.70;;;;;;5067846;28;20028;-66
2020/12/03 01:38:21;;;;;;;62.75;35.90;;;0.60;93.60;;;;;;5065331;28;20017;-66
2020/12/03 01:40:50;;;;;;;60.28;34.35;;;0.60;93.60;;;;;;5059969;28;20025;-67
2020/12/03 01:43:16;;;;;;;64.45;34.95;;;0.60;93.70;;;;;;5056416;28;20029;-66
2020/12/03 01:45:55;;;;;;;61.22;33.45;;;0.60;93.60;;;;;;5069068;28;20024;-66
2020/12/03 01:48:30;;;;;;;59.40;32.30;;;0.60;93.40;;;;;;5065526;28;20155;-66
2020/12/03 01:50:56;;;;;;;56.17;32.35;;;0.60;93.30;;;;;;5057278;28;20024;-66
2020/12/03 01:58:43;;;;;;;67.07;34.72;;;0.60;93.10;;;;;;5241920;22;20088;-65
2020/12/03 02:01:10;;;;;;;59.35;32.53;;;0.70;93.10;;;;;;4986379;28;20042;-66
2020/12/03 02:03:46;;;;;;;59.05;32.67;;;0.60;93.20;;;;;;4986871;28;20034;-66
2020/12/03 02:06:16;;;;;;;59.20;33.20;;;0.60;92.70;;;;;;4983550;28;20443;-67
2020/12/03 02:08:41;;;;;;;60.05;32.15;;;0.60;92.80;;;;;;4985219;28;20023;-67
2020/12/03 02:11:07;;;;;;;57.72;32.83;;;0.60;93.00;;;;;;4983310;28;20037;-66
2020/12/03 02:13:33;;;;;;;55.45;31.13;;;0.60;93.00;;;;;;4987662;28;20513;-67
2020/12/03 02:15:58;;;;;;;57.20;31.63;;;0.70;92.80;;;;;;4984867;28;20083;-66
2020/12/03 02:18:24;;;;;;;54.75;31.88;;;0.60;92.80;;;;;;4986330;28;20026;-66
2020/12/03 02:20:49;;;;;;;57.72;31.85;;;0.70;92.90;;;;;;4986668;28;20181;-66
2020/12/03 02:23:17;;;;;;;57.47;32.58;;;0.70;93.00;;;;;;4991785;28;20049;-66
2020/12/03 02:25:43;;;;;;;58.10;33.00;;;0.70;92.80;;;;;;4992592;28;20139;-66
2020/12/03 02:28:08;;;;;;;59.17;32.13;;;0.70;92.60;;;;;;4982066;28;20515;-67
2020/12/03 02:30:34;;;;;;;61.80;34.40;;;0.70;93.00;;;;;;4985881;28;20022;-67
2020/12/03 02:33:00;;;;;;;57.97;31.90;;;0.70;92.90;;;;;;4989760;28;20174;-66
2020/12/03 02:35:26;;;;;;;55.72;31.35;;;0.60;92.70;;;;;;4995281;28;20037;-66
2020/12/03 02:37:52;;;;;;;63.72;33.47;;;0.60;92.60;;;;;;4984003;28;20553;-67
2020/12/03 02:40:17;;;;;;;56.00;29.98;;;0.70;92.80;;;;;;4978373;28;20704;-66
2020/12/03 02:42:43;;;;;;;61.55;32.42;;;0.70;92.80;;;;;;4983252;28;20053;-67
2020/12/03 02:45:08;;;;;;;56.83;32.45;;;0.70;92.70;;;;;;4983620;28;20035;-66
2020/12/03 02:47:34;;;;;;;62.97;32.35;;;0.70;93.00;;;;;;4985412;28;20398;-66
2020/12/03 02:50:00;;;;;;;57.35;31.95;;;0.70;92.90;;;;;;4981620;28;20120;-67
2020/12/03 02:52:25;;;;;;;56.17;31.77;;;0.70;93.10;;;;;;4985384;28;20039;-67
2020/12/03 02:54:52;;;;;;;55.88;32.70;;;0.70;92.90;;;;;;4985577;28;20030;-66
2020/12/03 02:57:19;;;;;;;59.28;31.75;;;0.60;93.00;;;;;;4983595;28;20034;-66
2020/12/03 02:59:46;;;;;;;52.83;30.35;;;0.70;93.20;;;;;;4982455;28;20406;-66
2020/12/03 03:02:12;;;;;;;53.00;31.77;;;0.60;93.20;;;;;;4983956;28;20545;-67
2020/12/03 03:04:37;;;;;;;58.20;32.00;;;0.60;93.20;;;;;;4985881;28;20037;-66
2020/12/03 03:07:04;;;;;;;56.50;32.13;;;0.70;93.30;;;;;;4977153;28;20022;-67
2020/12/03 03:09:30;;;;;;;59.05;31.27;;;0.70;93.20;;;;;;4978962;28;20038;-66
2020/12/03 03:11:56;;;;;;;60.08;32.88;;;0.70;93.30;;;;;;4970368;28;20026;-67
2020/12/03 03:14:22;;;;;;;61.10;33.35;;;0.70;93.10;;;;;;4985360;28;20399;-66
2020/12/03 03:16:48;;;;;;;61.42;33.08;;;0.70;93.30;;;;;;4978798;28;20467;-66
2020/12/03 03:19:15;;;;;;;60.72;32.70;;;0.70;93.20;;;;;;4983439;28;20103;-66
2020/12/03 03:21:41;;;;;;;63.00;33.63;;;0.70;93.20;;;;;;4975036;28;20026;-66
2020/12/03 03:24:07;;;;;;;62.95;33.55;;;0.70;93.20;;;;;;4983147;28;20022;-67
2020/12/03 03:26:32;;;;;;;57.38;32.72;;;0.70;93.20;;;;;;4982662;28;20109;-67
2020/12/03 03:28:58;;;;;;;57.45;32.17;;;0.70;93.20;;;;;;4983334;28;20095;-66
2020/12/03 03:31:24;;;;;;;62.67;33.20;;;0.70;93.30;;;;;;4976600;28;20035;-65
2020/12/03 03:33:49;;;;;;;61.65;33.10;;;0.70;93.20;;;;;;4986845;28;20508;-66
2020/12/03 03:36:15;;;;;;;59.10;31.75;;;0.70;93.10;;;;;;4985178;28;20068;-66
2020/12/03 03:38:42;;;;;;;61.83;33.20;;;0.70;93.30;;;;;;4984517;28;20363;-67
2020/12/03 03:41:08;;;;;;;59.45;33.67;;;0.70;93.20;;;;;;4981073;28;20030;-67
2020/12/03 03:43:34;;;;;;;59.65;33.00;;;0.70;93.30;;;;;;4991453;28;20029;-67
2020/12/03 03:45:59;;;;;;;58.72;33.13;;;0.60;93.40;;;;;;5003338;28;20030;-67
2020/12/03 03:48:25;;;;;;;57.97;32.60;;;0.70;93.30;;;;;;4980645;28;20067;-66
2020/12/03 03:50:51;;;;;;;59.92;32.80;;;0.60;93.40;;;;;;4985333;28;20133;-66
2020/12/03 03:53:17;;;;;;;59.95;32.70;;;0.60;93.50;;;;;;4983676;28;20097;-66
2020/12/03 03:55:42;;;;;;;63.90;33.15;;;0.60;93.60;;;;;;4991758;28;20044;-66
2020/12/03 03:58:08;;;;;;;61.88;33.13;;;0.50;93.60;;;;;;4985440;28;20111;-67
2020/12/03 04:00:42;;;;;;;61.33;32.50;;;0.50;93.70;;;;;;4984822;28;20114;-66
2020/12/03 04:03:13;;;;;;;66.90;35.28;;;0.40;93.80;;;;;;4981482;28;20100;-66
2020/12/03 04:05:47;;;;;;;58.45;32.25;;;0.40;93.80;;;;;;4996471;28;20200;-66
2020/12/03 04:08:14;;;;;;;57.50;33.15;;;0.40;93.90;;;;;;4982970;28;20046;-67
2020/12/03 04:10:41;;;;;;;60.05;32.97;;;0.40;93.90;;;;;;4980566;28;20029;-66
2020/12/03 04:13:06;;;;;;;62.17;34.13;;;0.40;94.00;;;;;;4974262;28;20031;-66
2020/12/03 04:15:32;;;;;;;60.20;33.55;;;0.40;94.10;;;;;;4965365;28;20104;-66
2020/12/03 04:17:58;;;;;;;68.05;34.17;;;0.40;94.10;;;;;;4984421;28;20068;-66
2020/12/03 04:20:23;;;;;;;64.25;33.65;;;0.40;94.10;;;;;;4984745;28;20126;-66
2020/12/03 04:22:49;;;;;;;63.70;33.28;;;0.50;94.10;;;;;;4983572;28;20061;-67
2020/12/03 04:25:14;;;;;;;60.70;33.58;;;0.50;94.10;;;;;;4974239;28;20370;-66
2020/12/03 04:27:40;;;;;;;58.83;31.70;;;0.50;93.90;;;;;;4982383;28;20030;-67
2020/12/03 04:30:09;;;;;;;63.95;34.08;;;0.50;93.90;;;;;;4983548;28;20022;-66
2020/12/03 04:32:36;;;;;;;57.40;33.67;;;0.50;94.00;;;;;;4982531;28;20084;-67
2020/12/03 04:35:03;;;;;;;62.33;32.60;;;0.50;93.90;;;;;;4964994;28;20031;-66
2020/12/03 04:37:29;;;;;;;58.83;32.67;;;0.50;93.90;;;;;;4980840;28;20034;-67
2020/12/03 04:39:54;;;;;;;62.92;33.42;;;0.50;94.00;;;;;;4984244;28;20028;-65
2020/12/03 04:42:27;;;;;;;60.78;32.72;;;0.50;94.00;;;;;;4979540;28;20045;-67
2020/12/03 04:44:57;;;;;;;58.35;30.88;;;0.50;94.20;;;;;;4975635;28;20090;-67
2020/12/03 04:47:44;;;;;;;61.45;33.25;;;0.50;94.20;;;;;;4983210;28;20022;-66
2020/12/03 04:50:18;;;;;;;61.00;32.97;;;0.50;94.30;;;;;;4984159;28;20031;-66
2020/12/03 04:53:06;;;;;;;58.60;32.63;;;0.50;94.20;;;;;;4976800;28;20102;-66
2020/12/03 04:55:31;;;;;;;53.75;30.38;;;0.50;94.20;;;;;;4975279;28;20213;-66
2020/12/03 04:58:07;;;;;;;54.65;30.52;;;0.50;94.20;;;;;;4986780;28;20212;-66
2020/12/03 05:00:44;;;;;;;66.70;33.58;;;0.50;94.30;;;;;;4983744;28;20421;-66
2020/12/03 05:03:26;;;;;;;59.60;32.30;;;0.50;94.40;;;;;;4982622;28;20384;-66
2020/12/03 05:06:21;;;;;;;60.53;33.13;;;0.50;94.60;;;;;;4980982;28;20046;-66
2020/12/03 05:09:02;;;;;;;60.65;32.47;;;0.50;94.70;;;;;;4981942;28;20030;-66
2020/12/03 05:11:38;;;;;;;61.58;32.35;;;0.50;94.50;;;;;;4983403;28;20026;-66
2020/12/03 05:14:13;;;;;;;58.20;32.13;;;0.50;94.70;;;;;;4977492;28;20112;-66
2020/12/03 05:17:05;;;;;;;56.47;32.65;;;0.50;94.70;;;;;;4982655;28;20062;-66
2020/12/03 05:19:49;;;;;;;60.47;31.40;;;0.50;94.70;;;;;;5000689;28;20406;-67
2020/12/03 05:22:21;;;;;;;59.88;31.92;;;0.50;94.60;;;;;;4974803;28;20526;-66
2020/12/03 05:24:47;;;;;;;62.20;33.25;;;0.50;94.70;;;;;;4970306;28;20049;-66
2020/12/03 05:27:29;;;;;;;60.97;33.60;;;0.50;94.70;;;;;;4981347;28;20045;-67
2020/12/03 05:29:57;;;;;;;60.10;33.17;;;0.50;94.70;;;;;;4982760;28;20073;-67
2020/12/03 05:32:22;;;;;;;59.13;32.40;;;0.50;94.80;;;;;;4984540;28;20065;-67
2020/12/03 05:34:48;;;;;;;61.40;35.00;;;0.50;94.90;;;;;;5026063;28;20064;-67
2020/12/03 05:37:17;;;;;;;57.33;32.60;;;0.40;94.90;;;;;;5064037;28;20679;-66
2020/12/03 05:39:50;;;;;;;61.22;32.22;;;0.50;95.00;;;;;;5065587;28;20063;-66
2020/12/03 05:42:24;;;;;;;58.95;32.40;;;0.40;95.20;;;;;;5064464;28;20128;-67
2020/12/03 05:44:54;;;;;;;61.97;32.08;;;0.40;95.20;;;;;;5059647;28;20024;-66
2020/12/03 05:47:31;;;;;;;57.92;31.92;;;0.40;95.40;;;;;;5064205;28;20437;-67
2020/12/03 05:50:10;;;;;;;62.40;33.92;;;0.40;95.40;;;;;;5066283;28;20028;-66
2020/12/03 05:52:37;;;;;;;67.13;32.83;;;0.50;95.50;;;;;;5062311;28;20555;-67
2020/12/03 05:55:11;;;;;;;63.00;33.22;;;0.40;95.40;;;;;;5065151;28;20105;-66
2020/12/03 05:57:44;;;;;;;64.07;34.13;;;0.40;95.50;;;;;;5062670;28;20426;-67
2020/12/03 06:00:12;;;;;;;55.80;31.23;;;0.40;95.40;;;;;;5063570;28;20035;-66
2020/12/03 06:03:09;;;;;;;61.42;33.60;;;0.40;95.50;;;;;;5062141;28;20056;-67
2020/12/03 06:06:23;;;;;;;63.20;31.70;;;0.50;95.60;;;;;;5057909;28;20502;-66
2020/12/03 06:09:13;;;;;;;61.70;32.83;;;0.50;95.70;;;;;;5029213;28;20028;-67
2020/12/03 06:11:54;;;;;;;65.60;33.38;;;0.40;95.70;;;;;;5064065;28;20349;-66
2020/12/03 06:14:28;;;;;;;65.57;33.65;;;0.40;95.60;;;;;;5064548;28;20286;-66
2020/12/03 06:17:07;;;;;;;65.45;33.50;;;0.50;95.60;;;;;;5060128;28;20047;-67
2020/12/03 06:20:10;;;;;;;65.63;33.17;;;0.50;95.50;;;;;;5065352;28;20078;-67
2020/12/03 06:22:53;;;;;;;67.82;34.00;;;0.50;95.60;;;;;;5060545;28;20020;-66
2020/12/03 06:25:24;;;;;;;64.93;33.67;;;0.50;95.60;;;;;;5068839;28;20025;-66
2020/12/03 06:28:14;;;;;;;65.95;34.10;;;0.50;95.60;;;;;;5066741;28;20088;-67
2020/12/03 06:30:48;;;;;;;64.78;34.60;;;0.50;95.70;;;;;;5064475;28;20024;-67
2020/12/03 06:33:25;;;;;;;63.83;33.80;;;0.50;95.60;;;;;;5057696;28;20036;-66
2020/12/03 06:36:22;;;;;;;61.17;31.92;;;0.50;95.70;;;;;;5068115;28;20028;-69
2020/12/03 06:39:11;;;;;;;63.83;33.67;;;0.60;95.70;;;;;;5066657;28;20049;-66
2020/12/03 06:41:42;;;;;;;70.13;35.13;;;0.50;95.70;;;;;;5067961;28;20039;-67
2020/12/03 06:44:32;;;;;;;60.95;31.35;;;0.50;95.60;;;;;;5063431;28;20049;-66
2020/12/03 06:46:57;;;;;;;70.78;34.22;;;0.60;95.60;;;;;;5052446;28;20104;-66
2020/12/03 06:49:59;;;;;;;66.45;33.85;;;0.50;95.60;;;;;;5067697;28;20107;-66
2020/12/03 06:52:37;;;;;;;63.03;33.22;;;0.60;95.60;;;;;;5067381;28;20054;-67
2020/12/03 06:55:42;;;;;;;66.00;31.83;;;0.60;95.60;;;;;;5048416;28;20059;-66
2020/12/03 06:58:33;;;;;;;61.13;32.08;;;0.60;95.50;;;;;;5048537;28;20361;-66
2020/12/03 07:01:27;;;;;;;65.65;33.50;;;0.60;95.30;;;;;;5057894;28;20513;-66
2020/12/03 07:04:23;;;;;;;58.40;31.27;;;0.60;95.30;;;;;;5066551;28;20064;-66
2020/12/03 07:07:11;;;;;;;62.97;33.60;;;0.60;95.40;;;;;;5054563;28;20021;-67
2020/12/03 07:09:57;;;;;;;67.80;32.50;;;0.60;95.20;;;;;;5048122;28;20029;-66
2020/12/03 07:12:35;;;;;;;58.28;33.22;;;0.60;95.40;;;;;;5059082;28;20025;-66
2020/12/03 07:15:23;;;;;;;62.38;32.38;;;0.60;95.20;;;;;;5070186;28;20107;-66
2020/12/03 07:18:23;;;;;;;57.45;32.22;;;0.60;95.20;;;;;;5063717;28;20536;-67
2020/12/03 07:21:16;;;;;;;58.85;31.42;;;0.60;95.20;;;;;;5063582;28;20044;-66
2020/12/03 07:23:50;;;;;;;63.15;32.80;;;0.60;95.20;;;;;;5047159;28;20071;-67
2020/12/03 07:26:55;;;;;;;59.63;32.22;;;0.60;95.20;;;;;;5054512;28;20107;-67
2020/12/03 07:29:39;;;;;;;61.53;31.42;;;0.60;95.00;;;;;;5064512;28;20128;-65
2020/12/03 07:32:23;;;;;;;53.50;29.60;;;0.60;95.00;;;;;;5067513;28;20039;-67
2020/12/03 07:35:00;;;;;;;57.55;29.40;;;0.60;94.90;;;;;;5067227;28;20062;-67
2020/12/03 07:37:51;;;;;;;62.42;30.98;;;0.60;95.00;;;;;;5065703;28;20024;-66
2020/12/03 07:40:19;;;;;;;54.13;29.33;;;0.70;95.00;;;;;;5067399;28;20672;-66
2020/12/03 07:42:46;;;;;;;53.40;30.20;;;0.70;94.60;;;;;;5058905;28;20033;-67
2020/12/03 07:45:31;;;;;;;57.63;30.35;;;0.70;94.70;;;;;;5058876;28;20032;-65
2020/12/03 07:48:31;;;;;;;51.67;27.17;;;0.70;94.50;;;;;;5057221;28;20120;-67
2020/12/03 07:51:03;;;;;;;64.43;30.75;;;0.70;94.60;;;;;;5048235;28;20487;-65
2020/12/03 07:53:32;;;;;;;53.45;27.77;;;0.70;94.60;;;;;;5067200;28;20338;-67
2020/12/03 07:56:11;;;;;;;51.45;28.73;;;0.80;94.50;;;;;;5066114;28;20077;-66
2020/12/03 08:01:27;;;;;;;51.80;28.77;;;0.80;94.50;;;;;;5062606;28;20156;-67
2020/12/03 08:03:57;;;;;;;54.47;30.02;;;0.80;94.50;;;;;;5034026;28;20044;-67
2020/12/03 08:06:31;;;;;;;50.13;26.35;;;0.70;94.40;;;;;;5041656;28;20036;-66
2020/12/03 08:08:59;;;;;;;51.97;27.45;;;0.80;94.20;;;;;;5047938;28;20035;-67
2020/12/03 08:11:46;;;;;;;50.40;26.90;;;0.80;94.20;;;;;;5063381;28;20077;-67
2020/12/03 08:14:49;;;;;;;51.55;26.55;;;0.80;94.30;;;;;;5063961;28;20161;-67
2020/12/03 08:17:20;;;;;;;50.40;27.08;;;0.80;94.10;;;;;;5061302;28;20309;-67
2020/12/03 08:19:47;;;;;;;;;;;0.80;94.20;;;;;;5066662;28;20098;-67
2020/12/03 08:22:38;;;;;;;49.63;25.27;;;0.80;94.10;;;;;;5063287;28;20419;-66
2020/12/03 08:25:26;;;;;;;52.85;28.08;;;0.80;94.30;;;;;;5057030;28;20376;-67
2020/12/03 08:28:03;;;;;;;46.40;26.40;;;0.80;94.20;;;;;;5064362;28;20075;-67
2020/12/03 08:30:38;;;;;;;45.78;24.80;;;0.80;94.10;;;;;;5063550;28;20024;-67
2020/12/03 08:33:14;;;;;;;47.00;26.20;;;0.90;94.10;;;;;;5064456;28;20131;-68
2020/12/03 08:35:41;;;;;;;50.03;26.98;;;0.90;94.00;;;;;;5064001;28;20339;-67
2020/12/03 08:38:07;;;;;;;44.08;26.13;;;0.90;94.10;;;;;;5043350;28;20025;-67
2020/12/03 08:40:36;;;;;;;44.63;24.98;;;0.90;93.90;;;;;;5065743;28;20406;-68
2020/12/03 08:43:07;;;;;;;50.60;26.70;;;0.90;94.00;;;;;;5057178;28;20589;-67
2020/12/03 08:45:44;;;;;;;44.30;24.58;;;0.90;93.90;;;;;;5053848;28;20096;-67
2020/12/03 08:48:13;;;;;;;43.22;25.48;;;0.90;93.80;;;;;;5061308;28;20140;-67
2020/12/03 08:50:39;;;;;;;48.60;25.00;;;0.90;93.90;;;;;;5058381;28;20032;-67
2020/12/03 08:53:12;;;;;;;44.17;24.48;;;1.00;93.90;;;;;;5063493;28;20028;-67
2020/12/03 08:55:39;;;;;;;44.95;24.98;;;1.00;93.80;;;;;;5058574;28;20104;-67
2020/12/03 08:58:06;;;;;;;44.20;23.90;;;1.00;93.70;;;;;;5060285;28;20438;-68
2020/12/03 09:00:39;;;;;;;45.50;25.98;;;1.00;93.60;;;;;;5063095;28;20032;-67
2020/12/03 09:03:05;;;;;;;48.75;26.50;;;1.00;93.60;;;;;;5062648;28;20081;-66
2020/12/03 09:05:32;;;;;;;46.25;24.05;;;1.10;93.70;;;;;;5051762;28;20029;-68
2020/12/03 09:07:58;;;;;;;42.17;24.13;;;1.10;93.00;;;;;;5060950;28;20044;-68
2020/12/03 09:10:24;;;;;;;43.65;23.95;;;1.10;93.40;;;;;;5065168;28;20056;-67
2020/12/03 09:12:52;;;;;;;49.17;25.20;;;1.00;93.40;;;;;;5046450;28;20077;-68
2020/12/03 09:15:18;;;;;;;42.15;22.85;;;1.10;93.30;;;;;;5059161;28;20025;-68
2020/12/03 09:17:51;;;;;;;41.83;23.52;;;1.10;93.40;;;;;;5061713;28;20082;-68
2020/12/03 09:20:17;;;;;;;41.17;23.23;;;1.10;93.40;;;;;;5066032;28;20029;-67
2020/12/03 09:22:43;;;;;;;43.05;22.92;;;1.10;93.40;;;;;;5057814;28;20020;-67
2020/12/03 09:25:11;;;;;;;43.33;23.88;;;1.10;93.20;;;;;;5065389;28;20122;-67
2020/12/03 09:27:45;;;;;;;39.85;22.60;;;1.20;93.40;;;;;;5058361;28;20017;-67
2020/12/03 09:30:20;;;;;;;41.97;24.10;;;1.20;93.10;;;;;;5063806;28;20162;-67
2020/12/03 09:33:06;;;;;;;42.80;23.15;;;1.30;93.40;;;;;;5063650;28;20097;-67
2020/12/03 09:35:33;;;;;;;40.78;23.73;;;1.30;93.40;;;;;;5065111;28;20059;-68
2020/12/03 09:38:02;;;;;;;44.58;23.50;;;1.30;93.30;;;;;;5062835;28;20047;-67
2020/12/03 09:40:28;;;;;;;41.67;23.05;;;1.30;93.20;;;;;;5064221;28;20043;-67
2020/12/03 09:42:56;;;;;;;41.33;22.17;;;1.30;93.10;;;;;;5064272;28;20031;-68
2020/12/03 09:45:30;;;;;;;35.38;21.33;;;1.30;93.10;;;;;;5067164;28;20031;-67
2020/12/03 09:47:57;;;;;;;42.17;23.27;;;1.30;93.20;;;;;;5059714;28;20066;-68
2020/12/03 09:50:23;;;;;;;42.83;22.30;;;1.40;93.30;;;;;;5060637;28;20174;-67
2020/12/03 09:52:51;;;;;;;38.80;22.05;;;1.40;93.30;;;;;;5048587;28;20174;-67
2020/12/03 09:55:17;;;;;;;42.72;22.60;;;1.40;93.30;;;;;;5068826;28;20028;-68
2020/12/03 09:57:57;;;;;;;37.92;22.60;;;1.40;93.30;;;;;;5066553;28;20152;-67
2020/12/03 10:00:27;;;;;;;39.88;21.17;;;1.40;93.30;;;;;;5056445;28;20589;-68
2020/12/03 10:03:26;;;;;;;39.88;21.67;;;1.40;93.20;;;;;;5063023;28;20461;-68
2020/12/03 10:06:10;;;;;;;39.47;22.52;;;1.50;93.30;;;;;;5059385;28;20331;-67
2020/12/03 10:09:17;;;;;;;39.28;21.20;;;1.50;93.20;;;;;;5046539;28;20070;-67
2020/12/03 10:12:05;;;;;;;37.08;22.33;;;1.60;93.40;;;;;;5062691;28;20338;-67
2020/12/03 10:14:53;;;;;;;39.60;21.40;;;1.60;93.30;;;;;;5061952;28;20105;-67
2020/12/03 10:17:21;;;;;;;36.53;21.95;;;1.60;93.50;;;;;;5064581;28;20259;-67
2020/12/03 10:19:48;;;;;;;37.60;21.60;;;1.50;93.40;;;;;;5045695;28;20361;-67
2020/12/03 10:22:25;;;;;;;39.65;22.00;;;1.50;93.70;;;;;;5067102;28;20020;-68
2020/12/03 10:25:11;;;;;;;39.92;21.55;;;1.50;94.00;;;;;;5048886;28;20027;-67
2020/12/03 10:27:59;;;;;;;43.75;22.05;;;1.50;94.20;;;;;;5065798;28;20115;-67
2020/12/03 10:30:33;;;;;;;42.38;22.52;;;1.60;94.30;;;;;;5054882;28;20037;-67
2020/12/03 10:33:00;;;;;;;37.85;22.48;;;1.50;94.50;;;;;;5064226;28;20181;-67
2020/12/03 10:35:28;;;;;;;39.78;22.40;;;1.60;94.80;;;;;;5066628;28;20024;-67
2020/12/03 10:37:57;;;;;;;38.90;22.65;;;1.70;95.00;;;;;;5066538;28;20028;-67
2020/12/03 10:40:24;;;;;;;39.75;22.42;;;1.70;94.80;;;;;;5067564;28;20058;-67
2020/12/03 10:42:59;;;;;;;42.55;23.55;;;1.70;95.10;;;;;;5060185;28;20025;-67
2020/12/03 10:45:30;;;;;;;47.28;23.88;;;1.80;95.10;;;;;;5053437;28;20031;-67
2020/12/03 10:48:00;;;;;;;41.33;22.98;;;1.90;95.30;;;;;;5041271;28;20438;-68
2020/12/03 10:50:50;;;;;;;43.42;24.00;;;1.90;95.10;;;;;;5068089;28;20016;-67
2020/12/03 10:53:24;;;;;;;32.30;17.90;;;2.00;95.10;;;;;;5066208;28;20115;-68
2020/12/03 10:56:02;;;;;;;43.10;22.67;;;1.90;94.90;;;;;;5065160;28;20422;-67
2020/12/03 10:58:33;;;;;;;38.72;21.63;;;1.90;95.10;;;;;;5061024;28;20119;-67
2020/12/03 11:01:07;;;;;;;37.90;21.85;;;2.00;95.30;;;;;;5067920;28;20036;-67
2020/12/03 11:03:36;;;;;;;39.25;22.35;;;2.00;95.30;;;;;;5063919;28;20040;-67
2020/12/03 11:06:02;;;;;;;38.85;22.27;;;2.00;95.20;;;;;;5062473;28;20498;-67
2020/12/03 11:08:36;;;;;;;42.60;22.98;;;1.90;94.90;;;;;;5048017;28;20271;-67
2020/12/03 11:11:02;;;;;;;42.28;22.30;;;1.90;95.20;;;;;;5067827;28;20051;-67
2020/12/03 11:13:28;;;;;;;38.08;21.25;;;2.00;95.20;;;;;;5064176;28;20025;-67
2020/12/03 11:15:58;;;;;;;40.85;22.08;;;1.90;95.10;;;;;;5043571;28;20039;-68
2020/12/03 11:18:26;;;;;;;39.13;22.70;;;2.00;95.40;;;;;;5064667;28;20029;-67
2020/12/03 11:20:59;;;;;;;41.97;23.15;;;2.00;95.30;;;;;;5066858;28;20156;-67
2020/12/03 11:23:29;;;;;;;37.47;20.48;;;2.10;95.40;;;;;;5058957;28;20118;-67
2020/12/03 11:26:06;;;;;;;38.70;22.25;;;2.10;95.30;;;;;;5065699;28;20371;-67
2020/12/03 11:28:39;;;;;;;43.95;22.58;;;2.20;95.20;;;;;;5064932;28;20086;-67
2020/12/03 11:31:08;;;;;;;39.45;22.40;;;2.30;95.10;;;;;;5066142;28;20021;-68
2020/12/03 11:33:38;;;;;;;40.45;21.48;;;2.30;94.90;;;;;;5058750;28;20044;-67
2020/12/03 11:36:06;;;;;;;37.00;21.38;;;2.40;95.00;;;;;;5031218;28;20033;-67
2020/12/03 11:38:32;;;;;;;35.15;21.08;;;2.30;94.40;;;;;;5042278;28;20044;-67
2020/12/03 11:41:02;;;;;;;35.42;20.08;;;2.40;94.80;;;;;;5064427;28;20059;-67
2020/12/03 11:48:56;;;;;;;33.10;20.58;;;2.40;94.60;;;;;;5062301;28;20037;-67
2020/12/03 11:51:29;;;;;;;35.83;20.63;;;2.30;94.70;;;;;;5065907;28;20029;-68
2020/12/03 11:54:00;;;;;;;40.85;21.00;;;2.40;94.80;;;;;;5064511;28;20036;-68
2020/12/03 11:56:28;;;;;;;36.55;20.25;;;2.40;94.80;;;;;;5059589;28;20029;-67
2020/12/03 11:59:19;;;;;;;34.85;20.48;;;2.40;94.80;;;;;;5064694;28;20037;-68
2020/12/03 12:01:58;;;;;;;36.00;20.58;;;2.40;94.60;;;;;;5065995;28;20028;-67
2020/12/03 12:07:18;;;;;;;36.85;20.92;;;2.40;94.30;;;;;;5061159;28;20449;-67
2020/12/03 12:10:03;;;;;;;34.35;19.25;;;2.40;94.50;;;;;;5064664;28;20020;-67
2020/12/03 12:12:31;;;;;;;34.30;20.10;;;2.50;94.40;;;;;;5041977;28;20310;-67
2020/12/03 12:14:56;;;;;;;36.60;20.77;;;2.50;94.60;;;;;;5060289;28;20048;-68
2020/12/03 12:17:22;;;;;;;40.35;21.17;;;2.60;94.50;;;;;;5064165;28;20485;-68
2020/12/03 12:19:51;;;;;;;38.15;21.70;;;2.60;94.60;;;;;;5065888;28;20108;-68
2020/12/03 12:22:16;;;;;;;36.47;18.77;;;2.70;94.30;;;;;;5064187;28;20346;-67
2020/12/03 12:24:44;;;;;;;36.78;19.98;;;2.60;93.70;;;;;;5066188;28;20040;-68
2020/12/03 12:27:10;;;;;;;37.08;20.17;;;2.80;94.20;;;;;;5064136;28;20251;-67
2020/12/03 12:29:36;;;;;;;35.17;20.85;;;3.00;94.20;;;;;;5064771;28;20039;-67
2020/12/03 12:32:02;;;;;;;32.33;19.13;;;3.00;93.70;;;;;;5066669;28;20028;-68
2020/12/03 12:34:29;;;;;;;33.05;19.92;;;2.90;93.70;;;;;;5062823;28;20028;-68
2020/12/03 12:36:54;;;;;;;33.05;19.83;;;2.80;93.70;;;;;;5045082;28;20032;-67
2020/12/03 12:39:20;;;;;;;38.10;20.48;;;2.80;93.60;;;;;;5063273;28;20394;-67
2020/12/03 12:42:02;;;;;;;36.53;19.60;;;2.80;93.90;;;;;;5063057;28;20527;-68
2020/12/03 12:44:28;;;;;;;30.73;19.17;;;2.80;93.90;;;;;;5060407;28;20461;-67
2020/12/03 12:47:00;;;;;;;33.25;20.40;;;2.80;93.80;;;;;;5065334;28;20396;-67
2020/12/03 12:49:26;;;;;;;33.40;19.25;;;2.80;94.00;;;;;;5046702;28;20524;-68
2020/12/03 12:51:52;;;;;;;34.50;20.10;;;2.80;93.90;;;;;;5065794;28;20173;-68
2020/12/03 12:54:18;;;;;;;35.05;20.52;;;2.80;93.90;;;;;;5063327;28;20028;-67
2020/12/03 12:56:46;;;;;;;32.97;19.90;;;2.80;93.70;;;;;;5051261;28;20025;-67
2020/12/03 12:59:13;;;;;;;34.20;19.90;;;2.80;93.90;;;;;;5060014;28;20499;-68
2020/12/03 13:01:45;;;;;;;36.35;19.83;;;2.80;93.90;;;;;;5060946;28;20036;-67
2020/12/03 13:04:12;;;;;;;33.58;19.00;;;2.70;93.90;;;;;;5041454;28;20116;-67
2020/12/03 13:06:39;;;;;;;34.20;19.58;;;2.80;93.90;;;;;;5059213;28;20528;-67
2020/12/03 13:09:05;;;;;;;31.63;18.80;;;2.80;94.00;;;;;;5065109;28;20058;-67
2020/12/03 13:11:31;;;;;;;36.03;20.02;;;2.70;93.70;;;;;;5058693;28;20937;-67
2020/12/03 13:13:57;;;;;;;34.22;18.67;;;2.70;94.00;;;;;;5063294;28;20126;-67
2020/12/03 13:16:22;;;;;;;34.75;19.80;;;2.70;93.90;;;;;;5060914;28;20035;-67
2020/12/03 13:18:48;;;;;;;31.92;19.38;;;2.70;93.70;;;;;;5068152;28;20127;-67